createdAt,value
2022-07-28T00:01:28.269Z,62.31
2022-07-28T00:03:55.562Z,61.64
2022-07-28T00:06:22.892Z,62.39
2022-07-28T00:08:50.208Z,62.14
2022-07-28T00:11:17.491Z,62.39
2022-07-28T00:13:44.776Z,62.60
2022-07-28T00:16:12.042Z,63.28
2022-07-28T00:18:39.610Z,64.22
2022-07-28T00:21:06.850Z,63.15
2022-07-28T00:23:38.457Z,63.39
2022-07-28T00:26:07.992Z,63.26
2022-07-28T00:28:35.796Z,63.48
2022-07-28T00:31:05.623Z,62.94
2022-07-28T00:33:36.630Z,62.54
2022-07-28T00:36:03.993Z,62.99
2022-07-28T00:38:31.217Z,62.74
2022-07-28T00:41:13.750Z,63.05
2022-07-28T00:43:45.820Z,62.98
2022-07-28T00:46:15.838Z,62.78
2022-07-28T00:48:43.670Z,63.02
2022-07-28T00:51:11.476Z,63.35
2022-07-28T00:53:39.669Z,63.33
2022-07-28T00:56:07.715Z,63.34
2022-07-28T00:58:36.206Z,63.49
2022-07-28T01:01:05.685Z,63.35
2022-07-28T01:03:34.082Z,63.68
2022-07-28T01:06:13.296Z,63.95
2022-07-28T01:08:58.336Z,63.84
2022-07-28T01:11:42.537Z,64.46
2022-07-28T01:14:32.429Z,63.80
2022-07-28T01:17:08.577Z,63.50
2022-07-28T01:20:19.997Z,64.13
2022-07-28T01:23:08.295Z,63.46
2022-07-28T01:26:20.912Z,63.76
2022-07-28T01:29:06.006Z,64.31
2022-07-28T01:31:38.346Z,64.90
2022-07-28T01:34:13.737Z,65.15
2022-07-28T01:36:50.133Z,65.91
2022-07-28T01:39:18.464Z,66.12
2022-07-28T01:41:46.094Z,65.30
2022-07-28T01:44:20.531Z,64.89
2022-07-28T01:46:48.157Z,65.12
2022-07-28T01:49:17.185Z,65.01
2022-07-28T01:51:45.505Z,65.25
2022-07-28T01:54:13.337Z,66.00
2022-07-28T01:56:41.399Z,66.17
2022-07-28T01:59:12.178Z,66.42
2022-07-28T02:01:44.316Z,67.13
2022-07-28T02:04:13.129Z,67.73
2022-07-28T02:06:41.462Z,67.74
2022-07-28T02:09:10.423Z,68.62
2022-07-28T02:11:40.922Z,68.14
2022-07-28T02:14:22.132Z,68.65
2022-07-28T02:16:52.713Z,69.23
2022-07-28T02:19:20.379Z,69.38
2022-07-28T02:21:48.604Z,69.81
2022-07-28T02:24:18.567Z,69.82
2022-07-28T02:26:50.203Z,69.71
2022-07-28T02:29:48.127Z,70.01
2022-07-28T02:32:27.870Z,69.36
2022-07-28T02:35:06.032Z,70.27
2022-07-28T02:37:39.264Z,70.51
2022-07-28T02:40:09.699Z,70.29
2022-07-28T02:42:37.632Z,70.48
2022-07-28T02:45:06.216Z,70.74
2022-07-28T02:47:37.742Z,71.15
2022-07-28T02:50:05.588Z,71.07
2022-07-28T02:52:33.791Z,70.96
2022-07-28T02:55:01.595Z,70.36
2022-07-28T02:57:29.427Z,70.66
2022-07-28T02:59:56.696Z,71.83
2022-07-28T03:02:24.430Z,71.63
2022-07-28T03:05:18.803Z,71.08
2022-07-28T03:07:50.709Z,70.96
2022-07-28T03:10:34.267Z,71.03
2022-07-28T03:13:03.264Z,71.11
2022-07-28T03:15:31.139Z,71.83
2022-07-28T03:17:59.691Z,72.14
2022-07-28T03:20:26.975Z,72.68
2022-07-28T03:22:55.301Z,73.07
2022-07-28T03:25:43.676Z,73.02
2022-07-28T03:28:15.053Z,72.66
2022-07-28T03:30:45.470Z,73.46
2022-07-28T03:33:12.906Z,73.52
2022-07-28T03:35:41.563Z,73.41
2022-07-28T03:38:13.428Z,73.32
2022-07-28T03:40:42.015Z,73.49
2022-07-28T03:43:15.354Z,73.19
2022-07-28T03:45:42.760Z,72.59
2022-07-28T03:48:15.002Z,72.27
2022-07-28T03:50:42.630Z,72.65
2022-07-28T03:53:21.596Z,72.66
2022-07-28T03:55:50.830Z,72.96
2022-07-28T03:58:18.933Z,74.13
2022-07-28T04:00:46.243Z,74.18
2022-07-28T04:03:35.134Z,74.37
2022-07-28T04:06:03.360Z,74.23
2022-07-28T04:08:30.611Z,74.48
2022-07-28T04:10:57.835Z,74.34
2022-07-28T04:13:25.093Z,73.95
2022-07-28T04:15:53.494Z,73.83
2022-07-28T04:18:20.715Z,73.26
2022-07-28T04:20:47.945Z,72.54
2022-07-28T04:23:15.212Z,72.00
2022-07-28T04:25:42.432Z,71.78
2022-07-28T04:28:09.675Z,71.70
2022-07-28T04:30:39.981Z,71.50
2022-07-28T04:33:12.112Z,71.61
2022-07-28T04:35:39.421Z,71.76
2022-07-28T04:38:07.674Z,71.71
2022-07-28T04:40:34.910Z,71.53
2022-07-28T04:43:03.828Z,69.71
2022-07-28T04:45:31.251Z,69.25
2022-07-28T04:47:58.499Z,68.61
2022-07-28T04:50:28.345Z,67.67
2022-07-28T04:52:55.591Z,67.22
2022-07-28T04:55:22.816Z,66.17
2022-07-28T04:57:50.061Z,65.87
2022-07-28T05:00:18.003Z,65.28
2022-07-28T05:02:46.558Z,65.03
2022-07-28T05:05:13.923Z,64.73
2022-07-28T05:07:41.677Z,64.92
2022-07-28T05:10:10.772Z,63.75
2022-07-28T05:12:38.214Z,63.50
2022-07-28T05:15:06.907Z,62.87
2022-07-28T05:17:34.419Z,62.77
2022-07-28T05:20:03.373Z,62.47
2022-07-28T05:22:41.014Z,61.85
2022-07-28T05:25:17.469Z,61.07
2022-07-28T05:27:46.026Z,60.67
2022-07-28T05:30:14.109Z,59.12
2022-07-28T05:32:41.697Z,57.96
2022-07-28T05:35:09.407Z,57.49
2022-07-28T05:37:37.170Z,56.23
2022-07-28T05:40:10.277Z,55.24
2022-07-28T05:42:37.545Z,54.17
2022-07-28T05:45:15.571Z,53.01
2022-07-28T05:47:49.303Z,52.51
2022-07-28T05:50:18.276Z,51.96
2022-07-28T05:52:46.876Z,51.81
2022-07-28T05:55:14.941Z,52.10
2022-07-28T05:57:42.605Z,51.78
2022-07-28T06:00:16.929Z,50.92
2022-07-28T06:02:49.292Z,49.40
2022-07-28T06:05:18.631Z,48.65
2022-07-28T06:07:46.882Z,48.44
2022-07-28T06:10:18.984Z,47.79
2022-07-28T06:12:51.568Z,46.58
2022-07-28T06:15:24.287Z,46.13
2022-07-28T06:17:52.468Z,45.74
2022-07-28T06:20:20.811Z,45.17
2022-07-28T06:22:50.335Z,44.63
2022-07-28T06:25:22.690Z,44.21
2022-07-28T06:27:51.776Z,44.26
2022-07-28T06:30:18.992Z,44.42
2022-07-28T06:32:46.829Z,43.62
2022-07-28T06:35:16.471Z,43.55
2022-07-28T06:37:48.052Z,43.88
2022-07-28T06:40:16.558Z,44.27
2022-07-28T06:42:44.232Z,44.28
2022-07-28T06:45:21.053Z,44.47
2022-07-28T06:47:49.988Z,44.86
2022-07-28T06:50:25.524Z,44.94
2022-07-28T06:52:55.121Z,44.63
2022-07-28T06:55:22.405Z,44.24
2022-07-28T06:57:49.736Z,44.03
2022-07-28T07:00:17.299Z,43.95
2022-07-28T07:02:44.762Z,42.80
2022-07-28T07:05:13.070Z,42.95
2022-07-28T07:07:43.282Z,43.14
2022-07-28T07:10:11.237Z,42.14
2022-07-28T07:12:38.569Z,41.91
2022-07-28T07:15:07.132Z,41.06
2022-07-28T07:17:34.437Z,41.42
2022-07-28T07:20:07.078Z,40.94
2022-07-28T07:22:35.511Z,40.53
2022-07-28T07:25:13.711Z,41.12
2022-07-28T07:27:40.993Z,40.40
2022-07-28T07:30:09.430Z,39.77
2022-07-28T07:32:36.864Z,38.12
2022-07-28T07:35:13.720Z,37.52
2022-07-28T07:37:41.135Z,37.36
2022-07-28T07:40:09.339Z,36.68
2022-07-28T07:42:37.061Z,35.34
2022-07-28T07:45:04.594Z,34.74
2022-07-28T07:47:32.027Z,34.57
2022-07-28T07:50:03.887Z,36.21
2022-07-28T07:52:32.218Z,36.52
2022-07-28T07:54:59.542Z,38.41
2022-07-28T07:57:27.919Z,39.12
2022-07-28T07:59:55.235Z,39.00
2022-07-28T08:02:22.438Z,37.87
2022-07-28T08:04:50.152Z,35.31
2022-07-28T08:07:17.466Z,34.55
2022-07-28T08:09:49.321Z,34.98
2022-07-28T08:12:16.738Z,34.19
2022-07-28T08:14:51.902Z,34.90
2022-07-28T08:17:22.265Z,35.78
2022-07-28T08:19:52.890Z,35.87
2022-07-28T08:22:20.419Z,35.29
2022-07-28T08:24:47.713Z,35.22
2022-07-28T08:27:15.213Z,35.46
2022-07-28T08:29:48.851Z,36.06
2022-07-28T08:32:16.157Z,35.84
2022-07-28T08:34:43.450Z,37.02
2022-07-28T08:37:10.759Z,38.25
2022-07-28T08:39:38.250Z,39.39
2022-07-28T08:42:09.751Z,40.37
2022-07-28T08:44:54.857Z,42.03
2022-07-28T08:47:23.119Z,42.73
2022-07-28T08:49:51.871Z,42.44
2022-07-28T08:52:21.568Z,42.28
2022-07-28T08:54:50.457Z,41.32
2022-07-28T08:57:37.584Z,41.59
2022-07-28T09:00:05.964Z,41.34
2022-07-28T09:02:34.875Z,41.17
2022-07-28T09:05:02.141Z,41.41
2022-07-28T09:07:29.973Z,41.03
2022-07-28T09:09:57.452Z,41.23
2022-07-28T09:12:30.228Z,40.70
2022-07-28T09:14:57.444Z,40.33
2022-07-28T09:17:24.703Z,40.41
2022-07-28T09:19:52.311Z,39.61
2022-07-28T09:22:19.541Z,40.16
2022-07-28T09:24:46.790Z,39.25
2022-07-28T09:27:15.504Z,39.79
2022-07-28T09:29:49.135Z,39.15
2022-07-28T09:32:17.254Z,39.55
2022-07-28T09:34:51.768Z,38.36
2022-07-28T09:37:27.005Z,38.84
2022-07-28T09:39:59.136Z,39.22
2022-07-28T09:42:26.979Z,40.60
2022-07-28T09:45:22.240Z,39.33
2022-07-28T09:47:56.818Z,39.92
2022-07-28T09:50:27.714Z,39.18
2022-07-28T09:52:54.980Z,38.44
2022-07-28T09:55:22.272Z,38.01
2022-07-28T09:57:50.753Z,38.21
2022-07-28T10:00:28.396Z,38.33
2022-07-28T10:02:57.099Z,37.43
2022-07-28T10:05:39.976Z,35.93
2022-07-28T10:08:07.269Z,37.72
2022-07-28T10:10:34.534Z,36.71
2022-07-28T10:13:10.603Z,37.05
2022-07-28T10:15:56.501Z,37.71
2022-07-28T10:18:23.785Z,38.97
2022-07-28T10:20:51.261Z,38.91
2022-07-28T10:23:19.658Z,39.45
2022-07-28T10:25:47.078Z,39.52
2022-07-28T10:28:17.191Z,38.51
2022-07-28T10:30:45.076Z,38.26
2022-07-28T10:33:19.638Z,38.35
2022-07-28T10:35:54.754Z,38.37
2022-07-28T10:38:23.337Z,38.01
2022-07-28T10:40:51.329Z,36.19
2022-07-28T10:43:19.361Z,35.99
2022-07-28T10:46:05.107Z,37.18
2022-07-28T10:48:33.812Z,37.20
2022-07-28T10:51:01.749Z,35.28
2022-07-28T10:53:54.445Z,34.89
2022-07-28T10:56:37.821Z,34.84
2022-07-28T10:59:22.781Z,34.97
2022-07-28T11:01:56.577Z,35.38
2022-07-28T11:04:52.919Z,34.77
2022-07-28T11:07:22.208Z,35.81
2022-07-28T11:09:49.870Z,36.03
2022-07-28T11:12:17.817Z,36.33
2022-07-28T11:14:45.689Z,36.86
2022-07-28T11:17:14.562Z,36.95
2022-07-28T11:20:16.787Z,38.31
2022-07-28T11:22:34.070Z,37.88
2022-07-28T11:25:08.019Z,37.07
2022-07-28T11:27:52.639Z,35.71
2022-07-28T11:30:29.114Z,35.29
2022-07-28T11:32:56.685Z,36.36
2022-07-28T11:35:24.338Z,35.83
2022-07-28T11:38:00.594Z,35.27
2022-07-28T11:40:46.538Z,35.62
2022-07-28T11:43:36.228Z,34.16
2022-07-28T11:46:04.344Z,34.52
2022-07-28T11:48:32.936Z,34.83
2022-07-28T11:51:03.103Z,34.19
2022-07-28T11:53:32.843Z,34.89
2022-07-28T11:56:02.794Z,33.81
2022-07-28T11:58:30.473Z,34.42
2022-07-28T12:01:17.515Z,34.09
2022-07-28T12:03:50.448Z,33.66
2022-07-28T12:06:29.675Z,34.46
2022-07-28T12:08:57.829Z,34.19
2022-07-28T12:11:25.649Z,35.43
2022-07-28T12:14:02.078Z,34.77
2022-07-28T12:16:29.831Z,34.31
2022-07-28T12:18:57.385Z,33.53
2022-07-28T12:21:48.310Z,34.15
2022-07-28T12:24:18.858Z,34.12
2022-07-28T12:26:49.678Z,34.61
2022-07-28T12:29:17.396Z,34.84
2022-07-28T12:32:00.930Z,35.71
2022-07-28T12:34:29.057Z,35.57
2022-07-28T12:36:57.712Z,35.62
2022-07-28T12:39:28.967Z,35.04
2022-07-28T12:42:00.047Z,34.95
2022-07-28T12:44:37.035Z,35.73
2022-07-28T12:47:04.450Z,35.90
2022-07-28T12:49:31.652Z,35.21
2022-07-28T12:52:00.578Z,34.12
2022-07-28T12:54:36.337Z,35.05
2022-07-28T12:57:07.155Z,34.89
2022-07-28T12:59:35.049Z,35.51
2022-07-28T13:02:02.866Z,36.02
2022-07-28T13:04:45.282Z,35.79
2022-07-28T13:07:13.908Z,35.60
2022-07-28T13:09:51.918Z,35.29
2022-07-28T13:12:28.208Z,35.76
2022-07-28T13:14:56.304Z,35.93
2022-07-28T13:17:26.086Z,36.22
2022-07-28T13:20:04.682Z,36.27
2022-07-28T13:22:35.016Z,35.96
2022-07-28T13:25:02.287Z,36.10
2022-07-28T13:27:29.497Z,36.19
2022-07-28T13:29:56.717Z,35.75
2022-07-28T13:32:24.034Z,35.70
2022-07-28T13:34:51.606Z,35.78
2022-07-28T13:37:19.056Z,35.18
2022-07-28T13:39:52.186Z,35.47
2022-07-28T13:42:21.328Z,34.92
2022-07-28T13:44:50.938Z,35.29
2022-07-28T13:47:18.628Z,35.39
2022-07-28T13:49:46.779Z,35.10
2022-07-28T13:52:26.408Z,35.16
2022-07-28T13:55:00.570Z,35.69
2022-07-28T13:57:31.778Z,35.34
2022-07-28T14:00:06.687Z,35.51
2022-07-28T14:02:35.712Z,36.27
2022-07-28T14:05:04.465Z,35.71
2022-07-28T14:07:35.551Z,36.25
2022-07-28T14:10:06.927Z,35.77
2022-07-28T14:12:34.979Z,35.51
2022-07-28T14:15:07.015Z,35.84
2022-07-28T14:17:43.697Z,35.17
2022-07-28T14:20:13.477Z,35.63
2022-07-28T14:22:40.733Z,35.46
2022-07-28T14:25:08.223Z,35.53
2022-07-28T14:27:35.505Z,35.39
2022-07-28T14:30:04.126Z,35.24
2022-07-28T14:32:31.884Z,35.06
2022-07-28T14:34:59.201Z,34.85
2022-07-28T14:37:27.566Z,35.54
2022-07-28T14:39:54.819Z,35.19
2022-07-28T14:42:22.089Z,35.23
2022-07-28T14:44:49.322Z,35.29
2022-07-28T14:47:17.694Z,35.06
2022-07-28T14:49:57.435Z,35.11
2022-07-28T14:52:26.708Z,35.07
2022-07-28T14:54:54.315Z,35.12
2022-07-28T14:57:21.508Z,35.57
2022-07-28T15:00:09.444Z,35.24
2022-07-28T15:02:36.764Z,35.55
2022-07-28T15:05:04.290Z,35.79
2022-07-28T15:07:31.517Z,35.56
2022-07-28T15:09:58.676Z,35.64
2022-07-28T15:12:25.845Z,36.17
2022-07-28T15:14:53.142Z,35.63
2022-07-28T15:17:20.338Z,35.43
2022-07-28T15:19:47.518Z,36.16
2022-07-28T15:22:14.725Z,35.49
2022-07-28T15:24:42.222Z,36.18
2022-07-28T15:27:13.043Z,35.77
2022-07-28T15:29:40.216Z,35.78
2022-07-28T15:32:13.100Z,36.35
2022-07-28T15:34:42.906Z,35.99
2022-07-28T15:37:10.112Z,35.80
2022-07-28T15:39:40.641Z,36.14
2022-07-28T15:42:10.362Z,36.35
2022-07-28T15:44:37.552Z,35.90
2022-07-28T15:47:04.736Z,36.26
2022-07-28T15:49:31.980Z,36.02
2022-07-28T15:52:00.898Z,35.68
2022-07-28T15:54:28.413Z,35.58
2022-07-28T15:56:55.591Z,35.84
2022-07-28T15:59:22.793Z,35.51
2022-07-28T16:01:50.494Z,35.26
2022-07-28T16:04:18.131Z,35.42
2022-07-28T16:07:04.149Z,36.03
2022-07-28T16:09:45.353Z,35.43
2022-07-28T16:12:14.415Z,35.51
2022-07-28T16:14:42.314Z,35.26
2022-07-28T16:17:10.408Z,35.98
2022-07-28T16:19:48.972Z,35.63
2022-07-28T16:22:20.244Z,36.01
2022-07-28T16:24:47.533Z,35.82
2022-07-28T16:27:14.886Z,36.34
2022-07-28T16:29:42.420Z,35.90
2022-07-28T16:32:09.633Z,35.92
2022-07-28T16:34:36.996Z,35.49
2022-07-28T16:37:05.948Z,35.41
2022-07-28T16:39:34.110Z,35.79
2022-07-28T16:42:01.702Z,35.44
2022-07-28T16:44:29.203Z,35.26
2022-07-28T16:46:56.799Z,36.05
2022-07-28T16:49:24.404Z,36.47
2022-07-28T16:51:51.638Z,35.41
2022-07-28T16:54:19.537Z,35.69
2022-07-28T16:56:47.142Z,35.77
2022-07-28T16:59:14.319Z,36.32
2022-07-28T17:01:45.912Z,35.90
2022-07-28T17:04:14.665Z,36.22
2022-07-28T17:06:42.353Z,36.07
2022-07-28T17:09:10.077Z,36.09
2022-07-28T17:11:40.376Z,36.35
2022-07-28T17:14:07.871Z,36.26
2022-07-28T17:16:35.083Z,36.48
2022-07-28T17:19:02.377Z,36.57
2022-07-28T17:21:29.535Z,36.55
2022-07-28T17:23:56.726Z,37.04
2022-07-28T17:29:11.359Z,37.59
2022-07-28T17:31:43.740Z,37.47
2022-07-28T17:34:11.561Z,37.67
2022-07-28T17:36:41.986Z,37.89
2022-07-28T17:39:09.383Z,37.64
2022-07-28T17:41:36.570Z,37.99
2022-07-28T17:44:04.080Z,38.17
2022-07-28T17:46:31.623Z,38.28
2022-07-28T17:48:58.999Z,38.10
2022-07-28T17:51:27.554Z,38.34
2022-07-28T17:54:02.787Z,37.78
2022-07-28T17:56:31.407Z,38.19
2022-07-28T17:58:58.673Z,38.37
2022-07-28T18:01:25.860Z,38.80
2022-07-28T18:03:58.303Z,39.09
2022-07-28T18:06:35.045Z,38.83
2022-07-28T18:09:10.578Z,38.85
2022-07-28T18:11:56.966Z,39.27
2022-07-28T18:14:27.936Z,39.27
2022-07-28T18:16:55.326Z,39.46
2022-07-28T18:19:22.677Z,39.86
2022-07-28T18:21:49.942Z,39.99
2022-07-28T18:24:17.956Z,40.02
2022-07-28T18:26:45.481Z,40.35
2022-07-28T18:29:12.683Z,40.31
2022-07-28T18:31:45.926Z,40.47
2022-07-28T18:34:14.267Z,40.50
2022-07-28T18:36:41.689Z,40.73
2022-07-28T18:39:08.855Z,40.78
2022-07-28T18:41:45.994Z,41.00
2022-07-28T18:44:18.772Z,41.11
2022-07-28T18:46:46.623Z,41.06
2022-07-28T18:49:14.183Z,41.23
2022-07-28T18:51:44.274Z,41.40
2022-07-28T18:54:14.429Z,41.42
2022-07-28T18:56:42.841Z,41.34
2022-07-28T18:59:10.056Z,41.50
2022-07-28T19:01:37.255Z,41.39
2022-07-28T19:04:04.449Z,41.59
2022-07-28T19:06:31.646Z,41.72
2022-07-28T19:08:58.880Z,42.11
2022-07-28T19:11:26.271Z,42.03
2022-07-28T19:13:53.929Z,42.58
2022-07-28T19:16:21.371Z,42.63
2022-07-28T19:18:52.264Z,42.75
2022-07-28T19:21:19.416Z,42.95
2022-07-28T19:24:07.748Z,43.15
2022-07-28T19:27:03.114Z,43.42
2022-07-28T19:29:30.459Z,43.78
2022-07-28T19:31:57.754Z,43.89
2022-07-28T19:34:25.856Z,43.81
2022-07-28T19:36:53.088Z,43.92
2022-07-28T19:39:20.259Z,43.68
2022-07-28T19:41:47.419Z,44.02
2022-07-28T19:44:15.155Z,44.29
2022-07-28T19:46:42.604Z,44.54
2022-07-28T19:49:11.815Z,44.43
2022-07-28T19:51:39.110Z,44.59
2022-07-28T19:54:06.371Z,44.42
2022-07-28T19:56:33.628Z,44.97
2022-07-28T19:59:01.453Z,45.15
2022-07-28T20:01:29.014Z,45.41
2022-07-28T20:04:01.862Z,45.60
2022-07-28T20:06:31.838Z,45.43
2022-07-28T20:08:59.403Z,45.56
2022-07-28T20:11:26.635Z,45.80
2022-07-28T20:13:53.786Z,45.88
2022-07-28T20:16:21.310Z,45.75
2022-07-28T20:18:48.540Z,45.76
2022-07-28T20:21:22.433Z,45.81
2022-07-28T20:23:49.902Z,45.37
2022-07-28T20:26:18.577Z,45.43
2022-07-28T20:28:51.770Z,45.36
2022-07-28T20:31:20.332Z,45.25
2022-07-28T20:33:47.604Z,45.64
2022-07-28T20:36:14.753Z,45.27
2022-07-28T20:38:41.950Z,45.08
2022-07-28T20:41:09.117Z,45.20
2022-07-28T20:43:37.532Z,45.39
2022-07-28T20:46:05.484Z,46.14
2022-07-28T20:48:32.806Z,46.00
2022-07-28T20:51:00.246Z,46.08
2022-07-28T20:53:27.441Z,46.35
2022-07-28T20:55:54.602Z,46.16
2022-07-28T20:58:21.801Z,45.92
2022-07-28T21:00:51.174Z,46.51
2022-07-28T21:03:19.042Z,47.09
2022-07-28T21:05:46.237Z,46.90
2022-07-28T21:08:16.298Z,47.44
2022-07-28T21:10:44.608Z,47.64
2022-07-28T21:13:11.808Z,47.96
2022-07-28T21:15:38.967Z,48.06
2022-07-28T21:18:06.476Z,47.85
2022-07-28T21:20:33.713Z,47.99
2022-07-28T21:23:00.872Z,48.11
2022-07-28T21:25:29.901Z,48.19
2022-07-28T21:28:35.275Z,48.18
2022-07-28T21:31:02.513Z,48.52
2022-07-28T21:33:29.753Z,48.68
2022-07-28T21:35:57.025Z,48.96
2022-07-28T21:38:24.180Z,48.71
2022-07-28T21:40:51.416Z,49.07
2022-07-28T21:43:18.814Z,49.10
2022-07-28T21:45:46.824Z,47.86
2022-07-28T21:48:14.447Z,48.47
2022-07-28T21:50:41.601Z,48.18
2022-07-28T21:53:11.739Z,48.15
2022-07-28T21:55:41.341Z,48.38
2022-07-28T21:58:08.686Z,48.70
2022-07-28T22:00:35.850Z,48.85
2022-07-28T22:03:02.996Z,49.30
2022-07-28T22:05:30.596Z,49.51
2022-07-28T22:07:57.811Z,49.51
2022-07-28T22:10:25.016Z,49.50
2022-07-28T22:12:52.306Z,50.18
2022-07-28T22:15:19.504Z,49.83
2022-07-28T22:17:46.672Z,49.82
2022-07-28T22:20:13.875Z,49.97
2022-07-28T22:22:41.084Z,50.64
2022-07-28T22:25:08.498Z,50.57
2022-07-28T22:27:35.661Z,50.82
2022-07-28T22:30:03.667Z,50.79
2022-07-28T22:32:30.820Z,51.16
2022-07-28T22:34:58.248Z,51.50
2022-07-28T22:37:25.498Z,51.32
2022-07-28T22:39:52.649Z,51.54
2022-07-28T22:42:19.938Z,51.71
2022-07-28T22:44:47.110Z,51.14
2022-07-28T22:47:14.301Z,51.08
2022-07-28T22:49:41.465Z,51.97
2022-07-28T22:52:08.615Z,52.17
2022-07-28T22:54:39.091Z,52.71
2022-07-28T22:57:06.297Z,52.62
2022-07-28T22:59:39.795Z,52.88
2022-07-28T23:02:07.682Z,53.04
2022-07-28T23:04:36.995Z,52.78
2022-07-28T23:07:04.127Z,53.07
2022-07-28T23:09:31.300Z,53.16
2022-07-28T23:11:58.453Z,53.01
2022-07-28T23:14:25.787Z,53.52
2022-07-28T23:16:53.001Z,53.68
2022-07-28T23:19:20.151Z,53.81
2022-07-28T23:21:47.288Z,53.79
2022-07-28T23:24:14.621Z,53.88
2022-07-28T23:26:42.004Z,54.36
2022-07-28T23:29:09.172Z,54.70
2022-07-28T23:31:36.549Z,54.50
2022-07-28T23:34:03.769Z,54.63
2022-07-28T23:36:30.911Z,54.41
2022-07-28T23:38:58.335Z,54.27
2022-07-28T23:41:25.651Z,55.01
2022-07-28T23:43:52.832Z,55.32
2022-07-28T23:46:20.108Z,55.38
2022-07-28T23:48:47.448Z,55.62
2022-07-28T23:51:14.850Z,55.08
2022-07-28T23:53:42.061Z,55.73
2022-07-28T23:56:09.246Z,56.16
2022-07-28T23:58:36.392Z,55.93
